createdAt,value
2023-02-15T00:00:34.925Z,80.42
2023-02-15T00:04:23.118Z,80.01
2023-02-15T00:08:06.076Z,80.42
2023-02-15T00:11:51.965Z,79.67
2023-02-15T00:15:34.619Z,80.02
2023-02-15T00:19:19.225Z,80.13
2023-02-15T00:23:01.866Z,80.32
2023-02-15T00:26:47.263Z,80.76
2023-02-15T00:30:32.606Z,80.58
2023-02-15T00:34:17.192Z,81.05
2023-02-15T00:37:59.846Z,80.99
2023-02-15T00:41:42.745Z,80.84
2023-02-15T00:45:25.407Z,81.36
2023-02-15T00:49:09.487Z,81.26
2023-02-15T00:52:52.190Z,81.17
2023-02-15T00:56:34.890Z,81.12
2023-02-15T01:00:17.986Z,80.79
2023-02-15T01:04:00.713Z,80.33
2023-02-15T01:07:44.792Z,80.83
2023-02-15T01:11:27.388Z,81.07
2023-02-15T01:15:10.492Z,80.39
2023-02-15T01:18:53.244Z,80.44
2023-02-15T01:22:35.903Z,80.20
2023-02-15T01:26:20.171Z,79.71
2023-02-15T01:30:03.061Z,80.12
2023-02-15T01:33:48.488Z,79.67
2023-02-15T01:37:32.227Z,79.30
2023-02-15T01:41:28.624Z,79.03
2023-02-15T01:45:21.761Z,79.19
2023-02-15T01:49:09.877Z,78.84
2023-02-15T01:52:55.139Z,78.73
2023-02-15T01:56:39.972Z,79.03
2023-02-15T02:00:24.677Z,79.04
2023-02-15T02:04:13.263Z,78.12
2023-02-15T02:07:58.661Z,78.00
2023-02-15T02:11:41.535Z,78.05
2023-02-15T02:15:29.363Z,78.21
2023-02-15T02:19:36.966Z,78.19
2023-02-15T02:23:29.184Z,78.00
2023-02-15T02:27:31.272Z,77.89
2023-02-15T02:31:39.955Z,77.92
2023-02-15T02:35:30.626Z,78.10
2023-02-15T02:39:23.478Z,78.41
2023-02-15T02:43:09.697Z,78.70
2023-02-15T02:46:54.517Z,78.11
2023-02-15T02:50:41.476Z,78.17
2023-02-15T02:54:24.232Z,77.37
2023-02-15T02:58:11.514Z,77.86
2023-02-15T03:01:56.521Z,78.25
2023-02-15T03:05:43.936Z,77.92
2023-02-15T03:09:35.494Z,78.49
2023-02-15T03:13:18.699Z,77.72
2023-02-15T03:17:02.165Z,77.92
2023-02-15T03:20:46.339Z,77.08
2023-02-15T03:24:33.200Z,76.85
2023-02-15T03:28:20.472Z,78.17
2023-02-15T03:32:06.280Z,78.99
2023-02-15T03:35:54.638Z,79.90
2023-02-15T03:39:41.707Z,80.27
2023-02-15T03:43:28.827Z,80.54
2023-02-15T03:47:15.751Z,80.09
2023-02-15T03:51:21.681Z,80.68
2023-02-15T03:55:04.386Z,80.08
2023-02-15T03:59:04.648Z,80.10
2023-02-15T04:03:02.789Z,81.24
2023-02-15T04:06:46.856Z,80.85
2023-02-15T04:10:47.042Z,80.72
2023-02-15T04:14:47.181Z,81.32
2023-02-15T04:18:47.443Z,81.06
2023-02-15T04:22:49.069Z,80.99
2023-02-15T04:26:31.778Z,81.00
2023-02-15T04:30:15.844Z,81.43
2023-02-15T04:33:58.520Z,81.36
2023-02-15T04:37:43.192Z,81.77
2023-02-15T04:41:25.921Z,83.17
2023-02-15T04:45:09.418Z,82.88
2023-02-15T04:48:52.109Z,82.43
2023-02-15T04:52:34.829Z,82.40
2023-02-15T04:56:18.861Z,82.39
2023-02-15T05:00:01.553Z,81.38
2023-02-15T05:03:44.242Z,81.72
2023-02-15T05:07:26.948Z,81.61
2023-02-15T05:11:09.626Z,81.61
2023-02-15T05:14:53.652Z,81.03
2023-02-15T05:18:36.334Z,81.02
2023-02-15T05:22:19.002Z,80.92
2023-02-15T05:26:18.984Z,81.68
2023-02-15T05:30:03.346Z,80.96
2023-02-15T05:33:46.351Z,81.14
2023-02-15T05:37:29.033Z,81.44
2023-02-15T05:41:13.086Z,80.76
2023-02-15T05:44:55.779Z,81.21
2023-02-15T05:48:39.853Z,81.65
2023-02-15T05:52:22.548Z,80.69
2023-02-15T05:56:07.866Z,80.92
2023-02-15T05:59:50.621Z,80.75
2023-02-15T06:03:33.351Z,80.85
2023-02-15T06:07:17.381Z,79.43
2023-02-15T06:11:00.039Z,79.88
2023-02-15T06:14:42.692Z,79.82
2023-02-15T06:18:25.386Z,79.75
2023-02-15T06:22:09.882Z,79.93
2023-02-15T06:25:53.893Z,80.28
2023-02-15T06:29:36.611Z,80.92
2023-02-15T06:33:19.353Z,80.19
2023-02-15T06:37:02.013Z,80.93
2023-02-15T06:40:44.695Z,80.70
2023-02-15T06:44:28.819Z,80.68
2023-02-15T06:48:12.180Z,80.97
2023-02-15T06:51:54.838Z,81.47
2023-02-15T06:55:39.515Z,81.60
2023-02-15T06:59:22.269Z,81.09
2023-02-15T07:03:06.412Z,80.85
2023-02-15T07:06:49.071Z,79.96
2023-02-15T07:10:31.896Z,79.26
2023-02-15T07:14:14.679Z,79.52
2023-02-15T07:17:57.382Z,78.95
2023-02-15T07:21:41.468Z,78.86
2023-02-15T07:25:26.865Z,78.67
2023-02-15T07:29:12.509Z,78.65
2023-02-15T07:33:15.330Z,78.26
2023-02-15T07:36:59.306Z,78.65
2023-02-15T07:40:41.960Z,78.47
2023-02-15T07:44:24.660Z,77.89
2023-02-15T07:48:08.472Z,77.21
2023-02-15T07:51:51.181Z,76.97
2023-02-15T07:55:35.198Z,76.49
2023-02-15T07:59:17.888Z,76.58
2023-02-15T08:03:15.852Z,76.57
2023-02-15T08:06:58.603Z,77.33
2023-02-15T08:10:59.460Z,76.86
2023-02-15T08:14:42.202Z,77.01
2023-02-15T08:18:24.966Z,76.12
2023-02-15T08:22:08.868Z,76.29
2023-02-15T08:25:52.887Z,76.16
2023-02-15T08:29:37.217Z,75.30
2023-02-15T08:33:19.941Z,75.07
2023-02-15T08:37:02.920Z,74.52
2023-02-15T08:40:45.656Z,74.04
2023-02-15T08:44:30.178Z,74.79
2023-02-15T08:48:15.430Z,75.14
2023-02-15T08:51:58.177Z,74.95
2023-02-15T08:55:41.916Z,74.89
2023-02-15T08:59:25.920Z,73.88
2023-02-15T09:03:09.950Z,74.20
2023-02-15T09:06:53.154Z,73.60
2023-02-15T09:10:38.745Z,73.73
2023-02-15T09:14:24.370Z,73.95
2023-02-15T09:18:08.557Z,73.48
2023-02-15T09:21:53.146Z,73.91
2023-02-15T09:25:36.884Z,74.54
2023-02-15T09:29:20.564Z,75.79
2023-02-15T09:33:04.933Z,75.69
2023-02-15T09:36:50.748Z,75.81
2023-02-15T09:40:42.779Z,76.52
2023-02-15T09:44:35.899Z,76.62
2023-02-15T09:48:32.943Z,77.21
2023-02-15T09:52:38.501Z,77.29
2023-02-15T09:56:30.386Z,78.06
2023-02-15T10:00:21.140Z,78.06
2023-02-15T10:04:19.977Z,76.42
2023-02-15T10:08:20.968Z,76.37
2023-02-15T10:12:14.970Z,76.74
2023-02-15T10:16:10.527Z,76.77
2023-02-15T10:20:05.910Z,75.47
2023-02-15T10:23:59.305Z,75.23
2023-02-15T10:27:47.743Z,75.08
2023-02-15T10:31:35.576Z,74.77
2023-02-15T10:35:22.607Z,74.53
2023-02-15T10:39:09.475Z,74.59
2023-02-15T10:43:15.126Z,73.90
2023-02-15T10:47:29.257Z,73.35
2023-02-15T10:51:16.688Z,73.69
2023-02-15T10:55:06.785Z,73.48
2023-02-15T10:58:59.793Z,72.62
2023-02-15T11:03:02.501Z,72.10
2023-02-15T11:06:52.195Z,70.99
2023-02-15T11:10:41.297Z,69.96
2023-02-15T11:14:32.730Z,69.85
2023-02-15T11:18:17.823Z,69.91
2023-02-15T11:22:03.613Z,69.77
2023-02-15T11:25:48.693Z,69.23
2023-02-15T11:29:34.974Z,68.96
2023-02-15T11:33:19.655Z,68.79
2023-02-15T11:37:07.047Z,67.84
2023-02-15T11:40:51.110Z,67.49
2023-02-15T11:44:37.479Z,66.93
2023-02-15T11:48:20.174Z,67.03
2023-02-15T11:52:05.046Z,65.90
2023-02-15T11:55:49.378Z,65.29
2023-02-15T11:59:37.682Z,64.77
2023-02-15T12:03:29.270Z,63.50
2023-02-15T12:07:16.862Z,63.61
2023-02-15T12:11:03.044Z,62.50
2023-02-15T12:14:51.016Z,62.53
2023-02-15T12:18:39.785Z,62.85
2023-02-15T12:22:25.080Z,62.32
2023-02-15T12:26:07.887Z,61.22
2023-02-15T12:29:53.990Z,61.54
2023-02-15T12:33:37.666Z,60.70
2023-02-15T12:37:23.916Z,60.00
2023-02-15T12:41:13.067Z,59.60
2023-02-15T12:45:02.070Z,59.27
2023-02-15T12:48:44.782Z,58.21
2023-02-15T12:52:27.683Z,56.94
2023-02-15T12:56:11.786Z,56.40
2023-02-15T12:59:56.688Z,55.08
2023-02-15T13:03:48.833Z,54.33
2023-02-15T13:07:33.166Z,54.09
2023-02-15T13:11:22.583Z,53.78
2023-02-15T13:15:24.367Z,52.80
2023-02-15T13:19:13.389Z,51.84
2023-02-15T13:23:01.757Z,51.53
2023-02-15T13:26:46.146Z,50.53
2023-02-15T13:30:33.714Z,50.29
2023-02-15T13:34:22.009Z,49.75
2023-02-15T13:38:44.459Z,49.45
2023-02-15T13:42:29.888Z,49.65
2023-02-15T13:46:21.695Z,49.14
2023-02-15T13:50:31.582Z,48.50
2023-02-15T13:54:30.583Z,47.91
2023-02-15T13:58:33.833Z,46.69
2023-02-15T14:02:38.826Z,45.99
2023-02-15T14:06:42.634Z,45.89
2023-02-15T14:10:42.299Z,46.51
2023-02-15T14:14:52.151Z,45.93
2023-02-15T14:18:38.338Z,45.75
2023-02-15T14:22:28.459Z,45.43
2023-02-15T14:26:17.497Z,45.29
2023-02-15T14:30:02.135Z,45.85
2023-02-15T14:33:50.100Z,45.41
2023-02-15T14:37:43.821Z,45.10
2023-02-15T14:41:32.075Z,45.48
2023-02-15T14:45:22.358Z,45.22
2023-02-15T14:49:09.214Z,44.97
2023-02-15T14:53:25.418Z,44.49
2023-02-15T14:57:27.516Z,44.88
2023-02-15T15:01:11.898Z,45.14
2023-02-15T15:05:01.091Z,45.11
2023-02-15T15:08:43.860Z,44.87
2023-02-15T15:12:40.983Z,44.75
2023-02-15T15:16:50.084Z,44.22
2023-02-15T15:20:49.587Z,44.69
2023-02-15T15:24:54.405Z,44.72
2023-02-15T15:28:59.969Z,44.49
2023-02-15T15:32:47.256Z,44.55
2023-02-15T15:36:52.670Z,44.96
2023-02-15T15:40:44.783Z,45.01
2023-02-15T15:44:58.475Z,45.35
2023-02-15T15:48:42.546Z,45.89
2023-02-15T15:52:25.535Z,45.96
2023-02-15T15:56:12.918Z,46.39
2023-02-15T15:59:59.607Z,46.63
2023-02-15T16:03:50.975Z,46.90
2023-02-15T16:07:33.658Z,47.57
2023-02-15T16:11:19.174Z,48.29
2023-02-15T16:15:08.845Z,48.82
2023-02-15T16:18:52.219Z,49.27
2023-02-15T16:22:35.100Z,49.99
2023-02-15T16:26:23.010Z,50.77
2023-02-15T16:30:27.919Z,51.93
2023-02-15T16:34:16.697Z,52.71
2023-02-15T16:37:59.559Z,53.60
2023-02-15T16:41:46.907Z,54.59
2023-02-15T16:45:31.868Z,56.05
2023-02-15T16:49:18.434Z,57.20
2023-02-15T16:53:01.508Z,57.78
2023-02-15T16:56:47.411Z,58.54
2023-02-15T17:00:33.897Z,59.45
2023-02-15T17:04:28.908Z,60.05
2023-02-15T17:08:17.478Z,60.21
2023-02-15T17:12:02.947Z,60.79
2023-02-15T17:16:16.671Z,61.69
2023-02-15T17:19:59.462Z,62.29
2023-02-15T17:23:43.784Z,62.63
2023-02-15T17:27:28.206Z,63.30
2023-02-15T17:31:15.634Z,63.34
2023-02-15T17:35:09.298Z,66.86
2023-02-15T17:39:04.941Z,68.04
2023-02-15T17:42:47.641Z,66.71
2023-02-15T17:46:35.528Z,67.94
2023-02-15T17:50:21.801Z,67.18
2023-02-15T17:54:22.375Z,67.21
2023-02-15T17:58:08.425Z,66.91
2023-02-15T18:02:09.848Z,67.77
2023-02-15T18:06:10.192Z,68.38
2023-02-15T18:10:10.567Z,69.06
2023-02-15T18:13:53.194Z,69.91
2023-02-15T18:17:39.599Z,70.13
2023-02-15T18:21:22.322Z,70.47
2023-02-15T18:25:05.343Z,70.77
2023-02-15T18:28:48.166Z,70.90
2023-02-15T18:32:34.313Z,71.34
2023-02-15T18:36:23.691Z,71.27
2023-02-15T18:40:07.540Z,71.29
2023-02-15T18:43:51.805Z,71.72
2023-02-15T18:47:34.477Z,71.98
2023-02-15T18:51:22.886Z,72.40
2023-02-15T18:55:11.486Z,72.80
2023-02-15T18:58:54.280Z,72.76
2023-02-15T19:02:36.999Z,73.08
2023-02-15T19:06:23.076Z,73.71
2023-02-15T19:10:07.731Z,74.39
2023-02-15T19:13:51.204Z,74.13
2023-02-15T19:17:33.904Z,73.95
2023-02-15T19:21:18.497Z,73.96
2023-02-15T19:25:04.874Z,73.72
2023-02-15T19:28:47.768Z,74.27
2023-02-15T19:32:30.582Z,74.15
2023-02-15T19:36:17.785Z,74.49
2023-02-15T19:40:02.997Z,74.43
2023-02-15T19:43:53.045Z,74.68
2023-02-15T19:47:35.715Z,75.22
2023-02-15T19:51:19.250Z,75.37
2023-02-15T19:55:03.316Z,75.11
2023-02-15T19:58:45.997Z,75.62
2023-02-15T20:02:28.617Z,75.34
2023-02-15T20:06:14.981Z,75.82
2023-02-15T20:09:57.706Z,75.97
2023-02-15T20:13:41.929Z,75.75
2023-02-15T20:17:24.541Z,76.00
2023-02-15T20:21:10.697Z,76.45
2023-02-15T20:24:55.577Z,76.33
2023-02-15T20:28:38.258Z,75.94
2023-02-15T20:32:22.573Z,76.20
2023-02-15T20:36:05.933Z,76.34
2023-02-15T20:39:48.573Z,76.73
2023-02-15T20:43:31.360Z,76.74
2023-02-15T20:47:14.053Z,76.76
2023-02-15T20:50:59.473Z,77.56
2023-02-15T20:54:42.178Z,78.01
2023-02-15T20:58:26.478Z,77.99
2023-02-15T21:02:16.965Z,77.83
2023-02-15T21:06:01.793Z,77.25
2023-02-15T21:09:44.620Z,77.09
2023-02-15T21:13:28.907Z,77.16
2023-02-15T21:17:12.488Z,77.43
2023-02-15T21:20:57.293Z,77.42
2023-02-15T21:24:45.719Z,77.41
2023-02-15T21:28:29.448Z,76.92
2023-02-15T21:32:12.220Z,76.81
2023-02-15T21:35:56.917Z,77.04
2023-02-15T21:39:41.026Z,76.31
2023-02-15T21:43:43.260Z,75.80
2023-02-15T21:47:47.532Z,76.56
2023-02-15T21:51:48.530Z,76.75
2023-02-15T21:55:33.127Z,77.36
2023-02-15T21:59:17.378Z,77.74
2023-02-15T22:03:00.896Z,76.77
2023-02-15T22:06:43.751Z,76.66
2023-02-15T22:10:28.091Z,76.89
2023-02-15T22:14:37.689Z,77.30
2023-02-15T22:18:22.657Z,77.46
2023-02-15T22:22:05.400Z,77.13
2023-02-15T22:25:54.589Z,77.08
2023-02-15T22:29:38.601Z,77.28
2023-02-15T22:33:26.469Z,78.15
2023-02-15T22:37:09.835Z,78.50
2023-02-15T22:40:53.614Z,78.22
2023-02-15T22:44:37.824Z,77.86
2023-02-15T22:48:23.400Z,78.08
2023-02-15T22:52:09.764Z,78.09
2023-02-15T22:55:54.503Z,77.80
2023-02-15T22:59:38.761Z,77.18
2023-02-15T23:03:24.041Z,77.10
2023-02-15T23:07:10.014Z,77.00
2023-02-15T23:10:56.201Z,76.76
2023-02-15T23:14:40.213Z,76.99
2023-02-15T23:18:27.487Z,76.75
2023-02-15T23:22:14.257Z,76.70
2023-02-15T23:25:57.311Z,76.80
2023-02-15T23:29:41.419Z,77.00
2023-02-15T23:33:26.323Z,77.04
2023-02-15T23:37:19.071Z,76.71
2023-02-15T23:41:23.025Z,76.30
2023-02-15T23:45:23.975Z,75.93
2023-02-15T23:49:14.858Z,75.79
2023-02-15T23:52:58.222Z,75.46
2023-02-15T23:56:41.312Z,75.70
